createdAt,value
2019-06-15T00:01:33.150Z,4.60
2019-06-15T00:04:01.839Z,5.20
2019-06-15T00:06:30.521Z,6.10
2019-06-15T00:08:59.169Z,5.43
2019-06-15T00:11:27.814Z,5.70
2019-06-15T00:13:56.490Z,5.37
2019-06-15T00:16:25.193Z,5.43
2019-06-15T00:18:53.826Z,5.53
2019-06-15T00:21:22.512Z,5.60
2019-06-15T00:23:51.165Z,5.30
2019-06-15T00:26:19.889Z,5.40
2019-06-15T00:28:48.543Z,6.13
2019-06-15T00:31:17.141Z,5.00
2019-06-15T00:33:45.784Z,6.00
2019-06-15T00:36:14.431Z,4.70
2019-06-15T00:38:43.077Z,7.77
2019-06-15T00:41:11.780Z,5.63
2019-06-15T00:43:40.392Z,5.10
2019-06-15T00:46:09.091Z,5.87
2019-06-15T00:48:37.870Z,5.60
2019-06-15T00:51:06.455Z,5.13
2019-06-15T00:53:35.071Z,5.83
2019-06-15T00:56:03.693Z,5.40
2019-06-15T00:58:32.341Z,5.20
2019-06-15T01:01:00.979Z,4.73
2019-06-15T01:03:29.614Z,5.40
2019-06-15T01:05:58.336Z,5.20
2019-06-15T01:08:26.988Z,5.27
2019-06-15T01:10:55.637Z,4.63
2019-06-15T01:13:24.238Z,5.63
2019-06-15T01:15:52.927Z,5.90
2019-06-15T01:18:21.540Z,5.40
2019-06-15T01:20:50.312Z,5.10
2019-06-15T01:23:18.961Z,4.67
2019-06-15T01:25:47.646Z,4.77
2019-06-15T01:28:16.254Z,6.20
2019-06-15T01:30:44.904Z,5.13
2019-06-15T01:33:13.547Z,4.73
2019-06-15T01:35:42.186Z,5.23
2019-06-15T01:38:10.824Z,5.53
2019-06-15T01:40:39.502Z,5.80
2019-06-15T01:43:08.115Z,5.43
2019-06-15T01:45:36.757Z,5.70
2019-06-15T01:48:05.451Z,5.60
2019-06-15T01:50:34.210Z,5.00
2019-06-15T01:53:02.831Z,5.80
2019-06-15T01:55:31.539Z,5.83
2019-06-15T01:58:00.175Z,6.27
2019-06-15T02:00:30.759Z,5.60
2019-06-15T02:02:59.526Z,5.37
2019-06-15T02:05:28.213Z,4.57
2019-06-15T02:07:56.913Z,5.40
2019-06-15T02:10:29.473Z,5.10
2019-06-15T02:12:58.288Z,5.33
2019-06-15T02:15:26.986Z,5.33
2019-06-15T02:17:55.699Z,4.93
2019-06-15T02:20:24.346Z,5.00
2019-06-15T02:22:53.120Z,5.90
2019-06-15T02:25:35.448Z,5.40
2019-06-15T02:27:56.371Z,5.73
2019-06-15T02:30:29.931Z,5.90
2019-06-15T02:32:58.813Z,5.37
2019-06-15T02:35:27.612Z,4.93
2019-06-15T02:37:56.430Z,5.60
2019-06-15T02:40:25.193Z,5.00
2019-06-15T02:42:54.000Z,5.20
2019-06-15T02:45:22.806Z,5.50
2019-06-15T02:47:51.443Z,5.00
2019-06-15T02:50:20.343Z,5.40
2019-06-15T02:52:49.080Z,5.60
2019-06-15T02:55:18.045Z,5.50
2019-06-15T02:57:46.666Z,6.40
2019-06-15T03:00:21.289Z,6.30
2019-06-15T03:02:49.958Z,5.67
2019-06-15T03:05:18.624Z,6.77
2019-06-15T03:07:47.337Z,5.63
2019-06-15T03:10:15.962Z,5.87
2019-06-15T03:12:44.643Z,5.40
2019-06-15T03:15:13.461Z,5.90
2019-06-15T03:17:42.171Z,6.10
2019-06-15T03:20:11.043Z,5.90
2019-06-15T03:22:39.776Z,6.30
2019-06-15T03:25:10.585Z,6.03
2019-06-15T03:27:39.218Z,7.37
2019-06-15T03:30:08.390Z,6.53
2019-06-15T03:32:37.019Z,6.40
2019-06-15T03:35:06.373Z,5.90
2019-06-15T03:37:34.990Z,5.67
2019-06-15T03:40:03.840Z,5.80
2019-06-15T03:42:32.673Z,6.30
2019-06-15T03:45:01.455Z,6.43
2019-06-15T03:47:30.059Z,6.03
2019-06-15T03:49:58.681Z,6.07
2019-06-15T03:52:27.353Z,6.10
2019-06-15T03:54:56.029Z,6.57
2019-06-15T03:57:24.623Z,6.17
2019-06-15T03:59:53.277Z,6.43
2019-06-15T04:02:21.958Z,5.93
2019-06-15T04:04:52.416Z,7.13
2019-06-15T04:07:21.074Z,6.23
2019-06-15T04:09:49.704Z,6.20
2019-06-15T04:12:18.463Z,5.73
2019-06-15T04:14:47.191Z,6.50
2019-06-15T04:17:15.836Z,6.13
2019-06-15T04:19:44.486Z,6.50
2019-06-15T04:22:13.094Z,6.90
2019-06-15T04:24:41.718Z,6.13
2019-06-15T04:27:10.326Z,6.10
2019-06-15T04:29:38.952Z,7.17
2019-06-15T04:32:07.574Z,7.60
2019-06-15T04:34:36.235Z,7.40
2019-06-15T04:37:04.927Z,7.50
2019-06-15T04:39:33.563Z,7.33
2019-06-15T04:42:02.304Z,7.70
2019-06-15T04:44:30.976Z,7.93
2019-06-15T04:46:59.645Z,7.40
2019-06-15T04:49:28.351Z,6.57
2019-06-15T04:51:57.029Z,5.97
2019-06-15T04:54:25.689Z,6.77
2019-06-15T04:56:54.327Z,7.30
2019-06-15T04:59:23.089Z,6.83
2019-06-15T05:01:51.723Z,6.40
2019-06-15T05:04:20.367Z,6.27
2019-06-15T05:06:49.050Z,5.70
2019-06-15T05:09:17.780Z,5.10
2019-06-15T05:11:46.419Z,5.60
2019-06-15T05:14:15.067Z,4.27
2019-06-15T05:16:43.748Z,4.60
2019-06-15T05:19:12.446Z,4.90
2019-06-15T05:21:41.271Z,5.00
2019-06-15T05:24:09.887Z,5.37
2019-06-15T05:26:38.537Z,4.67
2019-06-15T05:29:07.132Z,5.33
2019-06-15T05:31:35.899Z,3.47
2019-06-15T05:34:04.679Z,4.30
2019-06-15T05:36:33.415Z,4.00
2019-06-15T05:39:02.101Z,3.97
2019-06-15T05:41:30.738Z,4.70
2019-06-15T05:43:59.508Z,3.37
2019-06-15T05:46:28.273Z,4.50
2019-06-15T05:48:56.966Z,3.77
2019-06-15T05:51:25.609Z,4.67
2019-06-15T05:53:54.233Z,3.70
2019-06-15T05:56:22.884Z,3.80
2019-06-15T05:58:51.499Z,4.20
2019-06-15T06:01:20.135Z,3.80
2019-06-15T06:03:48.824Z,3.77
2019-06-15T06:06:17.520Z,4.20
2019-06-15T06:08:46.180Z,3.53
2019-06-15T06:11:14.849Z,3.23
2019-06-15T06:13:43.453Z,3.30
2019-06-15T06:16:12.086Z,3.33
2019-06-15T06:18:40.706Z,3.57
2019-06-15T06:21:09.575Z,4.30
2019-06-15T06:23:38.365Z,3.43
2019-06-15T06:26:07.051Z,3.43
2019-06-15T06:28:35.789Z,3.10
2019-06-15T06:31:04.477Z,3.10
2019-06-15T06:33:33.122Z,3.77
2019-06-15T06:36:01.782Z,3.43
2019-06-15T06:38:30.361Z,3.40
2019-06-15T06:40:59.146Z,3.60
2019-06-15T06:43:27.837Z,2.90
2019-06-15T06:45:56.477Z,2.57
2019-06-15T06:48:25.213Z,2.83
2019-06-15T06:50:53.812Z,3.10
2019-06-15T06:53:22.415Z,3.10
2019-06-15T06:55:51.235Z,2.70
2019-06-15T06:58:19.976Z,3.03
2019-06-15T07:00:48.827Z,2.60
2019-06-15T07:03:17.461Z,3.50
2019-06-15T07:05:46.146Z,3.10
2019-06-15T07:08:14.799Z,2.90
2019-06-15T07:10:43.407Z,3.43
2019-06-15T07:13:12.117Z,3.40
2019-06-15T07:15:40.851Z,2.90
2019-06-15T07:18:09.476Z,2.80
2019-06-15T07:20:38.093Z,2.90
2019-06-15T07:23:06.968Z,3.30
2019-06-15T07:25:35.604Z,3.50
2019-06-15T07:28:08.079Z,3.97
2019-06-15T07:30:34.554Z,2.67
2019-06-15T07:33:03.333Z,2.90
2019-06-15T07:35:31.946Z,2.97
2019-06-15T07:38:00.665Z,3.03
2019-06-15T07:40:29.287Z,2.83
2019-06-15T07:42:57.943Z,2.40
2019-06-15T07:45:26.553Z,3.70
2019-06-15T07:47:55.191Z,2.33
2019-06-15T07:50:23.840Z,2.77
2019-06-15T07:52:52.476Z,2.30
2019-06-15T07:55:29.341Z,1.93
2019-06-15T07:57:58.023Z,2.20
2019-06-15T08:00:26.733Z,2.50
2019-06-15T08:02:55.439Z,2.20
2019-06-15T08:05:24.059Z,2.60
2019-06-15T08:07:52.668Z,2.20
2019-06-15T08:10:21.507Z,2.87
2019-06-15T08:12:50.275Z,2.30
2019-06-15T08:15:18.978Z,2.60
2019-06-15T08:17:47.585Z,1.83
2019-06-15T08:20:18.019Z,2.47
2019-06-15T08:22:46.634Z,1.93
2019-06-15T08:25:15.352Z,1.57
2019-06-15T08:27:43.959Z,1.87
2019-06-15T08:30:12.849Z,1.33
2019-06-15T08:32:41.598Z,1.17
2019-06-15T08:35:10.305Z,1.17
2019-06-15T08:37:38.902Z,1.27
2019-06-15T08:40:07.928Z,1.30
2019-06-15T08:42:36.543Z,1.30
2019-06-15T08:45:05.901Z,1.40
2019-06-15T08:47:34.531Z,1.33
2019-06-15T08:50:03.338Z,1.27
2019-06-15T08:52:32.022Z,1.43
2019-06-15T08:55:00.959Z,1.20
2019-06-15T08:57:29.812Z,1.20
2019-06-15T08:59:58.464Z,1.10
2019-06-15T09:02:27.101Z,1.33
2019-06-15T09:04:55.725Z,1.30
2019-06-15T09:07:24.337Z,0.93
2019-06-15T09:09:52.979Z,1.17
2019-06-15T09:12:24.844Z,1.30
2019-06-15T09:14:52.037Z,1.03
2019-06-15T09:17:20.925Z,0.93
2019-06-15T09:19:49.525Z,1.63
2019-06-15T09:22:18.170Z,0.90
2019-06-15T09:24:46.793Z,1.60
2019-06-15T09:27:15.427Z,1.00
2019-06-15T09:29:44.038Z,1.63
2019-06-15T09:32:12.728Z,1.60
2019-06-15T09:34:41.528Z,1.20
2019-06-15T09:37:10.164Z,1.20
2019-06-15T09:39:38.822Z,1.40
2019-06-15T09:42:07.531Z,1.10
2019-06-15T09:44:36.219Z,1.53
2019-06-15T09:47:04.979Z,0.97
2019-06-15T09:49:33.608Z,1.30
2019-06-15T09:52:02.247Z,1.00
2019-06-15T09:54:30.948Z,1.00
2019-06-15T09:56:59.638Z,1.10
2019-06-15T09:59:28.296Z,1.47
2019-06-15T10:01:56.929Z,1.20
2019-06-15T10:04:25.581Z,1.10
2019-06-15T10:06:54.215Z,1.20
2019-06-15T10:09:22.848Z,1.10
2019-06-15T10:11:51.531Z,1.13
2019-06-15T10:14:20.238Z,1.60
2019-06-15T10:16:48.948Z,1.37
2019-06-15T10:19:20.441Z,1.13
2019-06-15T10:21:49.040Z,1.00
2019-06-15T10:24:17.653Z,1.10
2019-06-15T10:26:46.268Z,1.20
2019-06-15T10:29:14.972Z,1.30
2019-06-15T10:31:43.582Z,1.00
2019-06-15T10:34:12.214Z,1.20
2019-06-15T10:36:40.833Z,1.57
2019-06-15T10:39:09.540Z,1.30
2019-06-15T10:41:38.329Z,1.17
2019-06-15T10:44:07.037Z,1.13
2019-06-15T10:46:35.739Z,1.03
2019-06-15T10:49:04.434Z,1.00
2019-06-15T10:51:33.143Z,1.20
2019-06-15T10:54:01.903Z,1.20
2019-06-15T10:56:30.538Z,1.00
2019-06-15T10:58:59.167Z,1.17
2019-06-15T11:01:27.811Z,0.90
2019-06-15T11:03:56.521Z,0.87
2019-06-15T11:06:25.214Z,1.13
2019-06-15T11:08:53.911Z,1.30
2019-06-15T11:11:23.016Z,1.23
2019-06-15T11:13:52.205Z,2.17
2019-06-15T11:16:21.009Z,1.10
2019-06-15T11:18:49.730Z,1.07
2019-06-15T11:21:18.353Z,1.30
2019-06-15T11:23:47.069Z,1.00
2019-06-15T11:26:15.789Z,1.00
2019-06-15T11:28:44.543Z,1.40
2019-06-15T11:31:13.187Z,1.03
2019-06-15T11:33:41.840Z,1.40
2019-06-15T11:36:10.758Z,1.57
2019-06-15T11:38:39.497Z,1.00
2019-06-15T11:41:08.178Z,1.23
2019-06-15T11:43:36.880Z,1.47
2019-06-15T11:46:05.598Z,1.40
2019-06-15T11:48:34.435Z,1.73
2019-06-15T11:51:03.477Z,1.93
2019-06-15T11:53:32.142Z,1.60
2019-06-15T11:56:00.852Z,1.63
2019-06-15T11:58:29.532Z,1.80
2019-06-15T12:00:58.163Z,1.90
2019-06-15T12:03:26.788Z,1.40
2019-06-15T12:05:55.919Z,1.40
2019-06-15T12:08:24.745Z,1.40
2019-06-15T12:10:53.512Z,1.70
2019-06-15T12:13:22.196Z,1.70
2019-06-15T12:15:50.885Z,1.43
2019-06-15T12:18:19.524Z,1.73
2019-06-15T12:20:48.219Z,1.40
2019-06-15T12:23:16.836Z,2.03
2019-06-15T12:25:45.546Z,1.53
2019-06-15T12:28:14.247Z,1.60
2019-06-15T12:30:47.195Z,2.13
2019-06-15T12:33:13.357Z,1.50
2019-06-15T12:35:41.971Z,1.23
2019-06-15T12:38:10.673Z,1.50
2019-06-15T12:40:39.333Z,1.23
2019-06-15T12:43:08.006Z,1.40
2019-06-15T12:45:36.648Z,1.20
2019-06-15T12:48:05.345Z,1.17
2019-06-15T12:50:34.082Z,1.20
2019-06-15T12:53:02.751Z,1.10
2019-06-15T12:55:31.768Z,1.77
2019-06-15T12:58:00.398Z,1.40
2019-06-15T13:00:35.275Z,1.60
2019-06-15T13:03:04.063Z,1.47
2019-06-15T13:05:33.362Z,1.20
2019-06-15T13:08:04.178Z,1.70
2019-06-15T13:10:32.855Z,1.20
2019-06-15T13:13:01.479Z,1.40
2019-06-15T13:15:30.239Z,1.13
2019-06-15T13:17:58.911Z,1.40
2019-06-15T13:20:29.812Z,1.57
2019-06-15T13:22:58.638Z,2.00
2019-06-15T13:25:27.393Z,1.47
2019-06-15T13:27:56.112Z,1.70
2019-06-15T13:30:24.800Z,1.63
2019-06-15T13:32:53.485Z,1.50
2019-06-15T13:35:22.175Z,1.53
2019-06-15T13:37:50.829Z,1.50
2019-06-15T13:40:19.504Z,1.00
2019-06-15T13:42:48.143Z,1.50
2019-06-15T13:45:17.120Z,1.00
2019-06-15T13:47:45.750Z,1.37
2019-06-15T13:50:15.437Z,1.90
2019-06-15T13:52:44.095Z,1.30
2019-06-15T13:55:15.776Z,1.80
2019-06-15T13:57:44.407Z,1.30
2019-06-15T14:00:13.110Z,1.67
2019-06-15T14:02:41.769Z,1.90
2019-06-15T14:05:11.455Z,1.90
2019-06-15T14:07:40.071Z,1.63
2019-06-15T14:10:08.834Z,1.50
2019-06-15T14:12:37.694Z,1.50
2019-06-15T14:15:07.576Z,1.60
2019-06-15T14:17:39.677Z,1.17
2019-06-15T14:20:07.361Z,1.20
2019-06-15T14:22:36.001Z,1.10
2019-06-15T14:25:05.468Z,1.40
2019-06-15T14:27:34.200Z,1.20
2019-06-15T14:30:02.910Z,1.13
2019-06-15T14:32:31.547Z,1.20
2019-06-15T14:35:00.176Z,1.33
2019-06-15T14:37:28.885Z,1.37
2019-06-15T14:39:57.694Z,1.20
2019-06-15T14:42:26.432Z,1.00
2019-06-15T14:44:55.181Z,1.13
2019-06-15T14:47:23.846Z,1.30
2019-06-15T14:49:52.473Z,1.27
2019-06-15T14:52:21.133Z,1.73
2019-06-15T14:54:49.739Z,1.30
2019-06-15T14:57:18.375Z,1.27
2019-06-15T14:59:59.697Z,1.30
2019-06-15T15:02:17.677Z,1.20
2019-06-15T15:04:46.522Z,1.13
2019-06-15T15:07:16.941Z,1.13
2019-06-15T15:09:46.902Z,1.57
2019-06-15T15:12:16.230Z,1.33
2019-06-15T15:14:46.965Z,1.60
2019-06-15T15:17:17.215Z,1.70
2019-06-15T15:19:46.630Z,1.80
2019-06-15T15:22:16.009Z,1.40
2019-06-15T15:24:44.793Z,1.47
2019-06-15T15:27:13.498Z,1.50
2019-06-15T15:29:42.319Z,1.40
2019-06-15T15:32:23.961Z,1.70
2019-06-15T15:34:41.574Z,1.50
2019-06-15T15:37:10.411Z,1.53
2019-06-15T15:39:39.246Z,1.20
2019-06-15T15:42:08.043Z,1.50
2019-06-15T15:44:36.677Z,1.30
2019-06-15T15:47:07.117Z,1.50
2019-06-15T15:49:36.655Z,1.50
2019-06-15T15:52:05.440Z,1.33
2019-06-15T15:54:36.140Z,5.83
2019-06-15T15:57:06.465Z,1.63
2019-06-15T15:59:36.338Z,1.70
2019-06-15T16:02:06.688Z,1.40
2019-06-15T16:04:37.110Z,1.57
2019-06-15T16:07:06.581Z,1.60
2019-06-15T16:09:36.043Z,2.00
2019-06-15T16:12:06.988Z,1.70
2019-06-15T16:14:36.940Z,1.40
2019-06-15T16:17:06.724Z,1.63
2019-06-15T16:19:35.668Z,1.83
2019-06-15T16:22:14.822Z,1.57
2019-06-15T16:24:43.578Z,1.87
2019-06-15T16:27:12.477Z,1.70
2019-06-15T16:29:41.271Z,1.80
2019-06-15T16:32:10.075Z,2.10
2019-06-15T16:34:38.869Z,1.80
2019-06-15T16:37:07.709Z,1.80
2019-06-15T16:39:36.492Z,3.00
2019-06-15T16:42:06.564Z,2.30
2019-06-15T16:44:36.566Z,2.07
2019-06-15T16:47:06.059Z,2.00
2019-06-15T16:49:39.938Z,2.10
2019-06-15T16:52:08.827Z,1.90
2019-06-15T16:54:37.651Z,1.80
2019-06-15T16:57:06.550Z,2.00
2019-06-15T16:59:36.347Z,2.07
2019-06-15T17:02:06.459Z,1.90
2019-06-15T17:04:36.380Z,2.13
2019-06-15T17:07:07.135Z,2.47
2019-06-15T17:09:36.326Z,1.63
2019-06-15T17:12:06.571Z,2.60
2019-06-15T17:14:36.466Z,2.13
2019-06-15T17:17:05.657Z,2.57
2019-06-15T17:19:36.283Z,2.07
2019-06-15T17:22:14.733Z,1.60
2019-06-15T17:24:36.923Z,2.07
2019-06-15T17:27:06.179Z,1.77
2019-06-15T17:29:35.065Z,1.90
2019-06-15T17:32:06.340Z,1.57
2019-06-15T17:34:36.357Z,1.87
2019-06-15T17:37:06.814Z,1.60
2019-06-15T17:39:37.522Z,1.93
2019-06-15T17:42:07.014Z,1.83
2019-06-15T17:44:37.002Z,2.10
2019-06-15T17:47:07.312Z,2.23
2019-06-15T17:49:37.171Z,2.20
2019-06-15T17:52:06.553Z,2.37
2019-06-15T17:54:37.348Z,2.30
2019-06-15T17:57:05.908Z,2.47
2019-06-15T17:59:36.443Z,1.93
2019-06-15T18:02:06.313Z,1.83
2019-06-15T18:04:37.167Z,2.10
2019-06-15T18:07:05.723Z,2.27
2019-06-15T18:09:36.734Z,2.33
2019-06-15T18:12:06.578Z,1.97
2019-06-15T18:14:36.804Z,2.10
2019-06-15T18:17:07.283Z,2.30
2019-06-15T18:19:38.635Z,2.00
2019-06-15T18:22:07.399Z,2.13
2019-06-15T18:24:37.213Z,1.97
2019-06-15T18:27:08.951Z,2.23
2019-06-15T18:29:36.887Z,2.30
2019-06-15T18:32:06.435Z,2.47
2019-06-15T18:34:36.812Z,2.60
2019-06-15T18:37:07.728Z,1.87
2019-06-15T18:39:36.945Z,2.40
2019-06-15T18:42:07.710Z,2.40
2019-06-15T18:44:36.687Z,2.17
2019-06-15T18:47:07.057Z,2.07
2019-06-15T18:49:36.315Z,2.73
2019-06-15T18:52:06.173Z,2.50
2019-06-15T18:54:36.396Z,2.97
2019-06-15T18:57:07.418Z,3.10
2019-06-15T18:59:36.533Z,2.93
2019-06-15T19:02:06.660Z,2.50
2019-06-15T19:04:35.609Z,2.70
2019-06-15T19:07:06.507Z,2.70
2019-06-15T19:09:34.772Z,2.83
2019-06-15T19:12:06.892Z,3.37
2019-06-15T19:14:36.147Z,2.80
2019-06-15T19:17:06.036Z,2.97
2019-06-15T19:19:37.552Z,3.00
2019-06-15T19:22:06.522Z,3.67
2019-06-15T19:24:36.839Z,3.97
2019-06-15T19:27:08.112Z,3.80
2019-06-15T19:29:36.387Z,3.93
2019-06-15T19:32:07.930Z,4.13
2019-06-15T19:34:44.224Z,5.00
2019-06-15T19:37:06.819Z,3.60
2019-06-15T19:39:36.922Z,3.30
2019-06-15T19:42:12.104Z,4.20
2019-06-15T19:44:40.765Z,2.70
2019-06-15T19:47:09.528Z,2.30
2019-06-15T19:49:38.198Z,2.70
2019-06-15T19:52:07.123Z,3.37
2019-06-15T19:54:36.574Z,2.90
2019-06-15T19:57:06.814Z,2.50
2019-06-15T19:59:36.666Z,2.53
2019-06-15T20:02:07.127Z,2.60
2019-06-15T20:04:36.282Z,2.33
2019-06-15T20:07:06.556Z,2.93
2019-06-15T20:09:37.056Z,2.83
2019-06-15T20:12:06.605Z,2.80
2019-06-15T20:14:36.736Z,2.70
2019-06-15T20:17:07.367Z,3.42
2019-06-15T20:19:37.656Z,3.13
2019-06-15T20:22:06.830Z,3.70
2019-06-15T20:24:36.493Z,3.23
2019-06-15T20:27:09.709Z,3.40
2019-06-15T20:29:36.246Z,3.70
2019-06-15T20:32:06.849Z,3.73
2019-06-15T20:34:37.056Z,4.10
2019-06-15T20:37:06.089Z,4.10
2019-06-15T20:39:36.261Z,4.10
2019-06-15T20:42:07.887Z,3.50
2019-06-15T20:44:36.834Z,3.60
2019-06-15T20:47:06.554Z,3.50
2019-06-15T20:49:36.998Z,4.47
2019-06-15T20:52:07.079Z,4.40
2019-06-15T20:54:36.157Z,3.23
2019-06-15T20:57:06.399Z,3.47
2019-06-15T20:59:37.057Z,3.40
2019-06-15T21:02:06.707Z,3.47
2019-06-15T21:04:36.356Z,3.47
2019-06-15T21:07:06.597Z,4.00
2019-06-15T21:09:36.409Z,3.97
2019-06-15T21:12:06.680Z,3.97
2019-06-15T21:14:36.615Z,3.73
2019-06-15T21:17:06.738Z,3.97
2019-06-15T21:19:36.196Z,4.63
2019-06-15T21:22:06.383Z,3.90
2019-06-15T21:24:37.333Z,4.30
2019-06-15T21:27:06.287Z,3.53
2019-06-15T21:29:36.984Z,4.00
2019-06-15T21:32:05.917Z,3.63
2019-06-15T21:34:36.170Z,3.20
2019-06-15T21:37:06.541Z,3.73
2019-06-15T21:39:36.516Z,3.87
2019-06-15T21:42:05.709Z,3.57
2019-06-15T21:44:36.154Z,3.43
2019-06-15T21:47:06.894Z,4.60
2019-06-15T21:49:35.897Z,4.50
2019-06-15T21:52:06.949Z,4.13
2019-06-15T21:54:36.143Z,4.60
2019-06-15T21:57:07.030Z,4.57
2019-06-15T21:59:36.987Z,5.00
2019-06-15T22:02:07.078Z,4.40
2019-06-15T22:04:36.830Z,4.43
2019-06-15T22:07:06.572Z,4.83
2019-06-15T22:09:36.363Z,4.50
2019-06-15T22:12:06.878Z,4.20
2019-06-15T22:14:35.864Z,5.00
2019-06-15T22:17:06.785Z,4.43
2019-06-15T22:19:36.881Z,5.37
2019-06-15T22:22:07.456Z,5.03
2019-06-15T22:24:36.361Z,5.67
2019-06-15T22:27:06.648Z,4.77
2019-06-15T22:29:36.469Z,4.70
2019-06-15T22:32:06.891Z,5.00
2019-06-15T22:34:36.388Z,4.67
2019-06-15T22:37:06.887Z,4.80
2019-06-15T22:39:37.047Z,5.10
2019-06-15T22:42:06.846Z,5.57
2019-06-15T22:44:37.198Z,4.97
2019-06-15T22:47:06.934Z,4.50
2019-06-15T22:49:36.077Z,5.20
2019-06-15T22:52:06.594Z,4.80
2019-06-15T22:54:37.669Z,4.90
2019-06-15T22:57:06.285Z,4.67
2019-06-15T22:59:35.037Z,5.07
2019-06-15T23:02:03.918Z,5.83
2019-06-15T23:04:32.637Z,6.00
2019-06-15T23:07:01.428Z,4.47
2019-06-15T23:09:30.172Z,5.20
2019-06-15T23:11:58.913Z,4.43
2019-06-15T23:14:27.600Z,4.23
2019-06-15T23:16:56.856Z,4.90
2019-06-15T23:19:26.210Z,5.20
2019-06-15T23:21:57.215Z,4.60
2019-06-15T23:24:27.196Z,4.80
2019-06-15T23:26:57.095Z,5.00
2019-06-15T23:29:27.151Z,5.70
2019-06-15T23:31:57.227Z,5.20
2019-06-15T23:34:27.090Z,4.90
2019-06-15T23:37:00.711Z,4.53
2019-06-15T23:39:28.350Z,5.47
2019-06-15T23:41:59.457Z,5.13
2019-06-15T23:44:28.249Z,4.63
2019-06-15T23:46:56.949Z,4.87
2019-06-15T23:49:26.941Z,4.90
2019-06-15T23:51:57.306Z,5.77
2019-06-15T23:54:27.869Z,4.93
2019-06-15T23:56:56.999Z,4.40
2019-06-15T23:59:26.446Z,4.90
